Time;durP1;ratioP1;P1;durP2;ratioP2;P2;SDS_P1;SDS_P2;PMS_P1;PMS_P2;Temp;Humidity;BMP_temperature;BMP_pressure;BME280_temperature;BME280_humidity;BME280_pressure;Samples;Min_cycle;Max_cycle;Signal;HPM_P1;HPM_P2
2023/08/08 00:00:10;;;;;;;3.33;1.40;;;;;;;13.37;80.26;101264.69;7400704;19;19934;-75
2023/08/08 00:02:39;;;;;;;2.58;1.50;;;;;;;13.35;80.75;101253.19;7400409;19;19918;-76
2023/08/08 00:05:08;;;;;;;6.07;1.17;;;;;;;13.33;80.63;101258.75;7399707;19;19914;-76
2023/08/08 00:07:37;;;;;;;5.55;1.30;;;;;;;13.32;80.73;101257.13;7401366;19;19927;-76
2023/08/08 00:10:06;;;;;;;5.05;1.67;;;;;;;13.31;80.65;101252.72;7400798;19;19919;-76
2023/08/08 00:12:38;;;;;;;2.20;1.20;;;;;;;13.33;81.39;101255.25;7400611;19;20256;-76
2023/08/08 00:15:08;;;;;;;2.67;1.85;;;;;;;13.34;81.02;101246.94;7401185;19;19951;-76
2023/08/08 00:17:37;;;;;;;3.25;1.52;;;;;;;13.37;80.81;101249.28;7400707;19;19918;-76
2023/08/08 00:20:08;;;;;;;2.17;1.92;;;;;;;13.38;80.67;101250.09;7400441;19;19926;-76
2023/08/08 00:22:36;;;;;;;4.85;1.55;;;;;;;13.38;80.67;101248.22;7400292;19;19914;-76
2023/08/08 00:25:06;;;;;;;5.45;1.50;;;;;;;13.35;80.58;101240.50;7398951;19;19919;-76
2023/08/08 00:27:34;;;;;;;5.03;1.63;;;;;;;13.37;81.05;101240.31;7399980;19;19918;-75
2023/08/08 00:30:06;;;;;;;8.15;1.70;;;;;;;13.35;81.41;101250.47;7400227;19;20280;-76
2023/08/08 00:32:35;;;;;;;5.70;1.73;;;;;;;13.35;81.31;101245.06;7399928;19;19998;-76
2023/08/08 00:35:04;;;;;;;3.63;1.63;;;;;;;13.32;80.93;101243.59;7398989;19;19947;-75
2023/08/08 00:37:32;;;;;;;5.10;2.13;;;;;;;13.31;81.09;101241.06;7399758;19;19935;-76
2023/08/08 00:40:01;;;;;;;3.20;1.85;;;;;;;13.28;81.74;101244.97;7398811;19;19919;-76
2023/08/08 00:42:30;;;;;;;3.38;1.60;;;;;;;13.27;81.46;101239.75;7399804;19;20348;-76
2023/08/08 00:45:03;;;;;;;5.53;2.05;;;;;;;13.26;81.63;101232.66;7398249;19;20393;-76
2023/08/08 00:47:35;;;;;;;4.35;1.98;;;;;;;13.25;81.73;101233.66;7399860;19;20276;-76
2023/08/08 00:50:05;;;;;;;4.22;1.67;;;;;;;13.24;81.44;101232.00;7399344;19;20517;-75
2023/08/08 00:52:34;;;;;;;3.05;1.27;;;;;;;13.22;81.57;101226.78;7399430;19;19923;-76
2023/08/08 00:55:03;;;;;;;3.55;1.20;;;;;;;13.21;81.67;101229.66;7403777;19;19915;-76
2023/08/08 00:57:32;;;;;;;4.07;1.48;;;;;;;13.21;81.38;101226.94;7399214;19;20371;-76
2023/08/08 01:00:00;;;;;;;5.22;1.33;;;;;;;13.20;81.47;101222.59;7398901;19;19935;-76
2023/08/08 01:02:29;;;;;;;3.38;1.38;;;;;;;13.19;81.74;101221.75;7399005;19;19964;-76
2023/08/08 01:05:00;;;;;;;3.75;1.50;;;;;;;13.17;81.83;101216.50;7397644;19;19923;-76
2023/08/08 01:07:35;;;;;;;3.33;2.10;;;;;;;13.17;82.39;101223.78;7399046;19;19910;-75
2023/08/08 01:10:11;;;;;;;3.83;1.88;;;;;;;13.17;82.79;101215.66;7398654;19;20482;-76
2023/08/08 01:12:43;;;;;;;5.78;2.10;;;;;;;13.18;82.73;101218.19;7402273;19;19923;-76
2023/08/08 01:15:14;;;;;;;4.72;2.17;;;;;;;13.16;82.30;101212.09;7405469;19;19940;-76
2023/08/08 01:17:43;;;;;;;4.10;1.55;;;;;;;13.15;82.26;101209.59;7406366;19;19935;-76
2023/08/08 01:20:17;;;;;;;4.25;1.80;;;;;;;13.15;83.02;101212.31;7405541;19;19922;-76
2023/08/08 01:22:54;;;;;;;3.63;1.52;;;;;;;13.15;83.49;101213.16;7405669;19;19932;-76
2023/08/08 01:25:26;;;;;;;3.35;1.55;;;;;;;13.12;82.98;101210.81;7403430;19;20314;-76
2023/08/08 01:27:54;;;;;;;3.47;1.70;;;;;;;13.12;82.53;101207.25;7407329;19;20280;-75
2023/08/08 01:30:23;;;;;;;5.25;1.92;;;;;;;13.10;82.50;101204.75;7408868;19;19910;-75
2023/08/08 01:32:52;;;;;;;5.78;1.83;;;;;;;13.09;82.30;101207.59;7405216;19;20002;-75
2023/08/08 01:35:20;;;;;;;2.80;1.73;;;;;;;13.06;82.88;101198.00;7403087;19;19930;-76
2023/08/08 01:37:53;;;;;;;4.13;2.10;;;;;;;13.04;83.30;101204.59;7404752;19;19919;-75
2023/08/08 01:40:22;;;;;;;2.75;1.75;;;;;;;13.02;82.90;101190.44;7403304;19;19970;-76
2023/08/08 01:42:54;;;;;;;7.28;1.80;;;;;;;13.01;83.45;101192.31;7404949;19;19919;-76
2023/08/08 01:45:24;;;;;;;;;;;;;;;12.88;85.32;101196.66;7405844;19;19919;-76
2023/08/08 01:47:53;;;;;;;2.75;1.60;;;;;;;12.96;83.23;101192.00;7405231;19;19982;-76
2023/08/08 01:50:22;;;;;;;4.25;1.95;;;;;;;12.99;83.29;101190.78;7404672;19;20372;-76
2023/08/08 01:52:51;;;;;;;2.92;1.60;;;;;;;13.00;83.18;101187.06;7404491;19;19978;-75
2023/08/08 01:55:19;;;;;;;3.78;1.77;;;;;;;13.02;83.34;101194.00;7404593;19;19914;-76
2023/08/08 01:57:48;;;;;;;2.63;1.77;;;;;;;13.03;83.13;101174.00;7404541;19;19914;-76
2023/08/08 02:00:19;;;;;;;2.75;1.55;;;;;;;13.07;83.47;101180.72;7404704;19;19919;-76
2023/08/08 02:02:48;;;;;;;3.47;1.70;;;;;;;13.09;83.14;101175.16;7404782;19;19940;-75
2023/08/08 02:05:17;;;;;;;5.05;1.70;;;;;;;13.10;83.11;101161.47;7402875;19;19938;-76
2023/08/08 02:07:45;;;;;;;5.18;1.95;;;;;;;13.13;83.28;101169.22;7404357;19;19958;-76
2023/08/08 02:10:14;;;;;;;3.63;1.70;;;;;;;13.15;83.25;101163.63;7404252;19;19914;-76
2023/08/08 02:12:42;;;;;;;6.03;2.13;;;;;;;13.17;82.94;101159.69;7405208;19;19915;-76
2023/08/08 02:15:11;;;;;;;5.03;1.95;;;;;;;13.20;82.83;101155.78;7404658;19;19970;-76
2023/08/08 02:17:42;;;;;;;5.55;2.20;;;;;;;13.24;83.66;101157.09;7404561;19;19918;-76
2023/08/08 02:20:12;;;;;;;4.50;1.80;;;;;;;13.25;83.24;101150.63;7404126;19;19918;-76
2023/08/08 02:22:42;;;;;;;5.78;2.00;;;;;;;13.26;83.22;101149.63;7404048;19;19921;-75
2023/08/08 02:25:11;;;;;;;6.00;2.05;;;;;;;13.27;83.16;101145.88;7401783;19;19950;-76
2023/08/08 02:27:39;;;;;;;2.92;1.80;;;;;;;13.28;83.14;101144.88;7404196;19;20362;-75
2023/08/08 02:30:09;;;;;;;2.40;1.70;;;;;;;13.29;83.06;101138.41;7403371;19;19922;-76
2023/08/08 02:32:38;;;;;;;5.38;2.20;;;;;;;13.29;82.82;101138.41;7403286;19;19915;-77
2023/08/08 02:35:10;;;;;;;5.38;2.47;;;;;;;13.30;83.80;101142.78;7401520;19;19938;-75
2023/08/08 02:37:39;;;;;;;6.88;2.25;;;;;;;13.30;83.12;101131.13;7403668;19;19922;-76
2023/08/08 02:40:09;;;;;;;6.13;2.17;;;;;;;13.31;83.23;101141.78;7401613;19;20288;-76
2023/08/08 02:42:38;;;;;;;6.35;2.40;;;;;;;13.30;83.53;101131.97;7402726;19;20379;-76
2023/08/08 02:45:08;;;;;;;5.72;2.85;;;;;;;13.31;83.50;101133.66;7401758;19;19929;-76
2023/08/08 02:47:37;;;;;;;5.40;2.20;;;;;;;13.29;83.70;101143.81;7402821;19;19919;-76
2023/08/08 02:50:06;;;;;;;2.95;1.95;;;;;;;13.29;83.59;101133.00;7402738;19;19918;-76
2023/08/08 02:52:37;;;;;;;5.85;2.05;;;;;;;13.29;84.08;101126.78;7402423;19;19915;-76
2023/08/08 02:55:06;;;;;;;5.18;2.30;;;;;;;13.29;83.58;101127.59;7406897;19;20352;-76
2023/08/08 02:57:35;;;;;;;5.22;1.98;;;;;;;13.31;83.48;101128.25;7402595;19;19915;-76
2023/08/08 03:00:04;;;;;;;3.35;1.85;;;;;;;13.33;83.92;101133.47;7402462;19;19918;-76
2023/08/08 03:02:33;;;;;;;4.25;2.03;;;;;;;13.34;83.74;101124.31;7402445;19;19966;-75
2023/08/08 03:05:01;;;;;;;4.43;2.05;;;;;;;13.35;83.54;101116.00;7401507;19;19914;-76
2023/08/08 03:07:30;;;;;;;4.47;2.00;;;;;;;13.37;83.88;101113.13;7402609;19;19932;-76
2023/08/08 03:10:01;;;;;;;5.40;2.03;;;;;;;13.37;83.89;101119.38;7402361;19;19939;-76
2023/08/08 03:12:30;;;;;;;6.40;1.90;;;;;;;13.36;84.02;101111.44;7402053;19;19934;-76
2023/08/08 03:14:58;;;;;;;4.03;1.70;;;;;;;13.35;83.80;101121.44;7401988;19;19922;-76
2023/08/08 03:17:27;;;;;;;2.70;1.30;;;;;;;13.36;83.43;101122.28;7402199;19;19943;-76
2023/08/08 03:19:56;;;;;;;3.80;1.67;;;;;;;13.36;83.40;101117.69;7402334;19;19914;-76
2023/08/08 03:22:24;;;;;;;3.40;1.85;;;;;;;13.38;83.84;101121.03;7401866;19;19922;-75
2023/08/08 03:24:53;;;;;;;4.78;1.60;;;;;;;13.41;83.69;101114.44;7401662;19;20002;-76
2023/08/08 03:27:25;;;;;;;5.55;1.70;;;;;;;13.42;83.66;101118.78;7401693;19;20603;-76
2023/08/08 03:29:53;;;;;;;2.72;1.55;;;;;;;13.43;83.83;101117.78;7401890;19;19938;-76
2023/08/08 03:32:22;;;;;;;4.55;1.52;;;;;;;13.44;83.45;101123.00;7401547;19;19922;-76
2023/08/08 03:34:50;;;;;;;5.35;2.00;;;;;;;13.44;83.05;101112.19;7399956;19;19947;-76
2023/08/08 03:37:19;;;;;;;5.85;1.90;;;;;;;13.45;83.56;101115.72;7399570;19;19926;-76
2023/08/08 03:39:48;;;;;;;4.38;1.50;;;;;;;13.44;83.35;101116.75;7400588;19;19915;-76
2023/08/08 03:42:16;;;;;;;4.13;1.88;;;;;;;13.44;83.33;101112.19;7401964;19;19942;-76
2023/08/08 03:44:47;;;;;;;4.95;1.55;;;;;;;13.42;83.39;101102.56;7403655;19;19939;-76
2023/08/08 03:47:16;;;;;;;4.93;1.42;;;;;;;13.40;83.10;101101.91;7403466;19;20441;-76
2023/08/08 03:49:45;;;;;;;3.60;1.55;;;;;;;13.39;83.34;101103.78;7401537;19;19918;-77
2023/08/08 03:52:13;;;;;;;3.25;1.40;;;;;;;13.38;83.07;101098.53;7401121;19;19935;-76
2023/08/08 03:54:42;;;;;;;4.35;1.50;;;;;;;13.35;82.89;101105.19;7404944;19;19946;-76
2023/08/08 03:57:10;;;;;;;6.82;1.27;;;;;;;13.34;82.80;101095.38;7400787;19;19949;-76
2023/08/08 03:59:39;;;;;;;1.63;1.38;;;;;;;13.33;82.41;101103.72;7400596;19;19936;-76
2023/08/08 04:02:10;;;;;;;3.10;1.15;;;;;;;13.32;82.46;101099.31;7400693;19;19932;-76
2023/08/08 04:04:39;;;;;;;2.80;1.60;;;;;;;13.29;82.61;101097.81;7400480;19;19915;-75
2023/08/08 04:07:07;;;;;;;3.38;1.98;;;;;;;13.26;82.44;101087.38;7400658;19;19942;-76
2023/08/08 04:09:36;;;;;;;5.07;1.73;;;;;;;13.24;82.96;101092.16;7400805;19;19919;-76
2023/08/08 04:12:05;;;;;;;3.65;1.45;;;;;;;13.21;82.75;101086.25;7400321;19;19911;-75
2023/08/08 04:14:33;;;;;;;3.08;1.60;;;;;;;13.17;83.14;101080.41;7400562;19;19923;-75
2023/08/08 04:17:02;;;;;;;4.75;1.80;;;;;;;13.15;83.49;101087.88;7400291;19;19942;-76
2023/08/08 04:19:34;;;;;;;3.70;1.70;;;;;;;13.13;83.63;101084.50;7400268;19;19918;-75
2023/08/08 04:22:02;;;;;;;3.97;1.40;;;;;;;13.11;83.76;101086.56;7400331;19;19935;-76
2023/08/08 04:24:31;;;;;;;5.25;1.48;;;;;;;13.10;83.08;101090.28;7400178;19;19915;-76
2023/08/08 04:27:00;;;;;;;2.90;1.38;;;;;;;13.09;83.27;101083.19;7398594;19;19922;-76
2023/08/08 04:29:29;;;;;;;4.20;1.40;;;;;;;13.09;83.46;101091.28;7400330;19;19906;-76
2023/08/08 04:31:57;;;;;;;3.75;1.60;;;;;;;13.08;83.28;101087.75;7399857;19;19949;-76
2023/08/08 04:34:26;;;;;;;5.00;1.70;;;;;;;13.08;83.05;101081.50;7399096;19;19922;-77
2023/08/08 04:36:57;;;;;;;2.13;1.15;;;;;;;13.06;82.98;101084.41;7400226;19;20658;-76
2023/08/08 04:39:25;;;;;;;1.83;1.40;;;;;;;13.07;82.44;101091.47;7399534;19;19938;-76
2023/08/08 04:41:54;;;;;;;5.72;1.48;;;;;;;13.08;82.21;101082.34;7399941;19;20268;-77
2023/08/08 04:44:22;;;;;;;3.90;1.02;;;;;;;13.12;81.85;101074.72;7399772;19;20593;-76
2023/08/08 04:46:51;;;;;;;4.43;1.30;;;;;;;13.15;81.87;101077.91;7397293;19;20284;-76
2023/08/08 04:49:20;;;;;;;3.28;1.10;;;;;;;13.17;81.62;101081.25;7399665;19;19932;-76
2023/08/08 04:51:48;;;;;;;4.38;1.20;;;;;;;13.20;81.35;101088.16;7399973;19;19943;-76
2023/08/08 04:54:19;;;;;;;2.53;1.33;;;;;;;13.21;81.32;101070.88;7399094;19;20336;-76
2023/08/08 04:56:48;;;;;;;4.90;1.20;;;;;;;13.22;81.13;101069.84;7399134;19;20329;-76
2023/08/08 04:59:16;;;;;;;4.60;1.38;;;;;;;13.25;81.05;101074.03;7399006;19;20721;-77
2023/08/08 05:01:45;;;;;;;2.55;1.40;;;;;;;13.26;81.13;101073.84;7398848;19;20272;-76
2023/08/08 05:04:14;;;;;;;4.78;1.50;;;;;;;13.29;81.60;101078.06;7399010;19;20304;-76
2023/08/08 05:06:42;;;;;;;6.07;1.30;;;;;;;13.31;81.30;101081.41;7397581;19;19915;-76
2023/08/08 05:09:11;;;;;;;2.53;1.40;;;;;;;13.34;81.76;101079.16;7398537;19;19915;-76
2023/08/08 05:11:42;;;;;;;1.88;0.98;;;;;;;13.38;81.71;101066.91;7399057;19;19982;-76
2023/08/08 05:14:11;;;;;;;4.68;1.15;;;;;;;13.39;81.29;101071.31;7398706;19;20287;-76
2023/08/08 05:16:40;;;;;;;4.65;1.27;;;;;;;13.44;81.60;101068.88;7398602;19;20273;-76
2023/08/08 05:19:09;;;;;;;4.95;1.85;;;;;;;13.49;81.22;101060.19;7398727;19;19938;-76
2023/08/08 05:21:37;;;;;;;2.85;1.10;;;;;;;13.52;81.67;101063.34;7398835;19;20565;-77
2023/08/08 05:24:07;;;;;;;4.15;1.30;;;;;;;13.55;81.09;101062.94;7398268;19;19938;-76
2023/08/08 05:26:35;;;;;;;3.53;0.90;;;;;;;13.58;81.52;101059.88;7396775;19;19936;-76
2023/08/08 05:29:07;;;;;;;2.35;1.00;;;;;;;13.62;81.34;101054.91;7398172;19;20284;-76
2023/08/08 05:31:36;;;;;;;6.10;1.33;;;;;;;13.67;81.17;101051.63;7398342;19;20237;-76
2023/08/08 05:34:05;;;;;;;7.80;1.33;;;;;;;13.71;81.04;101052.91;7397397;19;19938;-76
2023/08/08 05:36:33;;;;;;;2.13;0.85;;;;;;;13.74;81.21;101047.94;7397928;19;19953;-77
2023/08/08 05:39:02;;;;;;;2.40;0.95;;;;;;;13.78;80.91;101051.94;7397207;19;19984;-76
2023/08/08 05:41:30;;;;;;;3.63;1.08;;;;;;;13.81;81.08;101042.59;7397991;19;20250;-77
2023/08/08 05:43:59;;;;;;;3.38;0.90;;;;;;;13.84;81.01;101051.19;7397493;19;19931;-76
2023/08/08 05:46:30;;;;;;;4.88;2.00;;;;;;;13.89;80.83;101048.72;7396183;19;19926;-77
2023/08/08 05:48:59;;;;;;;4.45;0.98;;;;;;;13.93;80.74;101055.44;7397334;19;19936;-76
2023/08/08 05:51:27;;;;;;;6.97;1.27;;;;;;;13.99;80.07;101054.66;7397844;19;19982;-76
2023/08/08 05:53:56;;;;;;;2.80;1.08;;;;;;;14.07;80.09;101050.97;7397216;19;19915;-76
2023/08/08 05:56:24;;;;;;;5.53;1.10;;;;;;;14.12;79.79;101062.06;7397468;19;19918;-76
2023/08/08 05:58:53;;;;;;;6.35;1.17;;;;;;;14.16;79.62;101065.19;7399709;19;20387;-76
2023/08/08 06:01:44;;;;;;;7.13;1.00;;;;;;;14.21;79.61;101062.75;7405786;19;19978;-76
2023/08/08 06:04:13;;;;;;;4.78;0.90;;;;;;;14.24;79.21;101075.94;7404425;19;19941;-76
2023/08/08 06:06:42;;;;;;;2.03;1.05;;;;;;;14.28;79.25;101063.66;7402270;19;20454;-76
2023/08/08 06:09:11;;;;;;;2.88;1.25;;;;;;;14.32;79.35;101070.34;7403595;19;20261;-76
2023/08/08 06:11:39;;;;;;;4.97;1.20;;;;;;;14.34;79.56;101057.44;7403987;19;19930;-76
2023/08/08 06:14:08;;;;;;;6.60;1.08;;;;;;;14.35;79.48;101076.25;7403819;19;20310;-76
2023/08/08 06:16:37;;;;;;;12.65;1.20;;;;;;;14.35;79.29;101075.38;7403819;19;19915;-76
2023/08/08 06:19:08;;;;;;;5.38;1.05;;;;;;;14.36;79.03;101075.22;7403792;19;19914;-77
2023/08/08 06:21:38;;;;;;;4.55;1.10;;;;;;;14.35;78.97;101078.97;7403511;19;20265;-76
2023/08/08 06:24:07;;;;;;;3.58;1.00;;;;;;;14.36;78.90;101080.66;7403371;19;20315;-76
2023/08/08 06:26:36;;;;;;;3.83;0.90;;;;;;;14.38;78.86;101081.28;7401977;19;19914;-76
2023/08/08 06:29:06;;;;;;;3.85;0.90;;;;;;;14.44;78.81;101085.91;7403067;19;19922;-76
2023/08/08 06:31:34;;;;;;;5.60;0.88;;;;;;;14.48;79.08;101086.34;7403310;19;19942;-76
2023/08/08 06:34:03;;;;;;;6.88;1.33;;;;;;;14.47;78.76;101074.66;7402684;19;19918;-76
2023/08/08 06:36:34;;;;;;;5.10;1.20;;;;;;;14.46;78.56;101083.00;7403247;19;19915;-76
2023/08/08 06:39:03;;;;;;;4.95;0.90;;;;;;;14.44;78.76;101072.38;7402465;19;19918;-76
2023/08/08 06:41:31;;;;;;;1.92;0.80;;;;;;;14.46;78.72;101083.84;7402862;19;20020;-76
2023/08/08 06:44:00;;;;;;;5.10;1.05;;;;;;;14.47;78.39;101090.09;7403180;19;19962;-76
2023/08/08 06:46:28;;;;;;;4.13;1.10;;;;;;;14.51;78.85;101073.25;7401598;19;19918;-76
2023/08/08 06:48:59;;;;;;;2.55;0.75;;;;;;;14.58;78.55;101072.47;7401580;19;19939;-76
2023/08/08 06:51:28;;;;;;;7.53;0.85;;;;;;;14.66;77.86;101077.72;7403037;19;19919;-76
2023/08/08 06:53:59;;;;;;;2.60;0.95;;;;;;;14.72;78.13;101066.06;7402784;19;19942;-76
2023/08/08 06:56:28;;;;;;;5.63;1.13;;;;;;;14.79;77.91;101067.81;7402640;19;19988;-76
2023/08/08 06:58:57;;;;;;;3.95;1.30;;;;;;;14.86;77.74;101068.66;7402663;19;20295;-76
2023/08/08 07:01:26;;;;;;;5.22;1.00;;;;;;;14.95;77.09;101070.19;7402877;19;19928;-76
2023/08/08 07:03:54;;;;;;;2.55;0.68;;;;;;;15.04;77.06;101054.56;7402303;19;20245;-76
2023/08/08 07:06:23;;;;;;;1.40;0.57;;;;;;;15.13;76.26;101053.38;7402034;19;20268;-76
2023/08/08 07:08:51;;;;;;;3.13;0.90;;;;;;;15.21;76.15;101050.47;7402291;19;19942;-76
2023/08/08 07:11:24;;;;;;;4.00;1.00;;;;;;;15.29;75.42;101069.28;7401646;19;19942;-76
2023/08/08 07:13:53;;;;;;;7.95;1.23;;;;;;;15.38;74.98;101038.22;7402267;19;19942;-76
2023/08/08 07:16:21;;;;;;;3.17;0.60;;;;;;;15.44;74.97;101050.94;7402158;19;20274;-76
2023/08/08 07:18:50;;;;;;;4.90;0.82;;;;;;;15.49;74.34;101063.09;7401969;19;19918;-76
2023/08/08 07:21:18;;;;;;;1.98;1.00;;;;;;;15.54;74.77;101053.31;7401888;19;20332;-76
2023/08/08 07:23:47;;;;;;;5.93;0.98;;;;;;;15.62;74.44;101046.88;7401560;19;20328;-76
2023/08/08 07:26:16;;;;;;;5.78;0.90;;;;;;;15.66;73.51;101040.00;7401371;19;19922;-76
2023/08/08 07:28:47;;;;;;;5.38;1.08;;;;;;;15.76;72.65;101054.00;7401525;19;19935;-76
2023/08/08 07:31:16;;;;;;;1.70;0.90;;;;;;;15.89;72.89;101033.13;7401875;19;19926;-76
2023/08/08 07:33:45;;;;;;;4.03;0.70;;;;;;;16.00;73.01;101033.56;7402087;19;19919;-76
2023/08/08 07:36:13;;;;;;;6.95;1.50;;;;;;;16.08;72.23;101030.63;7400497;19;19922;-76
2023/08/08 07:38:42;;;;;;;4.90;1.27;;;;;;;16.10;71.82;101039.38;7402172;19;19918;-76
2023/08/08 07:41:10;;;;;;;4.63;0.90;;;;;;;16.15;71.77;101036.88;7401777;19;19918;-75
2023/08/08 07:43:39;;;;;;;2.53;0.82;;;;;;;16.21;70.67;101031.47;7401514;19;19922;-75
2023/08/08 07:46:10;;;;;;;2.03;0.68;;;;;;;16.26;70.81;101036.28;7401222;19;20272;-76
2023/08/08 07:48:39;;;;;;;4.05;0.68;;;;;;;16.35;70.50;101056.75;7401264;19;19918;-76
2023/08/08 07:51:07;;;;;;;5.32;0.80;;;;;;;16.40;69.82;101031.63;7401130;19;19950;-76
2023/08/08 07:53:36;;;;;;;5.85;0.95;;;;;;;16.44;68.94;101027.47;7401198;19;19915;-76
2023/08/08 07:56:04;;;;;;;3.97;0.93;;;;;;;16.51;68.75;101022.84;7401115;19;19951;-75
2023/08/08 07:58:35;;;;;;;3.38;0.80;;;;;;;16.55;68.03;101022.22;7401003;19;20254;-74
2023/08/08 08:01:03;;;;;;;2.50;0.70;;;;;;;16.66;67.55;101045.22;7401113;19;19911;-76
2023/08/08 08:03:35;;;;;;;5.43;1.13;;;;;;;16.72;67.33;101020.75;7400857;19;19915;-76
2023/08/08 08:06:03;;;;;;;5.32;0.82;;;;;;;16.78;67.39;101035.38;7400889;19;20011;-76
2023/08/08 08:08:32;;;;;;;3.05;1.10;;;;;;;16.80;67.20;101030.56;7400846;19;19935;-75
2023/08/08 08:11:01;;;;;;;3.63;1.13;;;;;;;16.84;67.63;101025.50;7401123;19;19922;-76
2023/08/08 08:13:29;;;;;;;1.27;0.57;;;;;;;16.76;66.54;101034.75;7401206;19;19939;-76
2023/08/08 08:15:58;;;;;;;3.70;0.90;;;;;;;16.72;66.88;101034.34;7402927;19;20250;-75
2023/08/08 08:18:28;;;;;;;8.05;1.00;;;;;;;16.66;67.22;101035.19;7402969;19;20308;-75
2023/08/08 08:20:59;;;;;;;5.70;0.90;;;;;;;16.60;66.01;101052.38;7401175;19;19935;-75
2023/08/08 08:23:28;;;;;;;6.72;0.85;;;;;;;16.62;66.39;101043.97;7400179;19;19919;-76
2023/08/08 08:25:57;;;;;;;9.07;0.80;;;;;;;16.62;67.14;101038.53;7400521;19;19939;-76
2023/08/08 08:28:25;;;;;;;4.38;0.82;;;;;;;16.73;66.45;101048.78;7398172;19;20001;-76
2023/08/08 08:30:54;;;;;;;2.47;0.68;;;;;;;16.84;67.20;101025.50;7400243;19;20282;-76
2023/08/08 08:33:23;;;;;;;3.33;1.27;;;;;;;16.85;66.63;101070.72;7402000;19;19941;-76
2023/08/08 08:35:51;;;;;;;7.80;1.23;;;;;;;16.83;66.62;101026.59;7399124;19;19935;-76
2023/08/08 08:38:23;;;;;;;1.98;0.70;;;;;;;16.79;65.57;101045.19;7400716;19;19935;-75
2023/08/08 08:40:53;;;;;;;4.22;0.77;;;;;;;16.84;66.67;101061.72;7399236;19;19936;-76
2023/08/08 08:43:21;;;;;;;5.40;0.82;;;;;;;16.94;65.87;101032.19;7400521;19;19944;-76
2023/08/08 08:45:54;;;;;;;3.42;0.82;;;;;;;16.94;64.80;101048.50;7400136;19;19922;-76
2023/08/08 08:48:24;;;;;;;6.03;0.70;;;;;;;16.96;64.70;101032.78;7398407;19;19927;-75
2023/08/08 08:50:53;;;;;;;1.83;0.43;;;;;;;17.02;64.50;101050.16;7399815;19;19918;-75
2023/08/08 08:53:25;;;;;;;2.35;0.80;;;;;;;17.12;63.40;101051.38;7404560;19;19922;-76
2023/08/08 08:55:56;;;;;;;3.10;0.55;;;;;;;17.16;62.39;101022.69;7400337;19;20018;-76
2023/08/08 08:58:28;;;;;;;1.75;0.70;;;;;;;17.16;63.24;101022.69;7400141;19;19914;-75
2023/08/08 09:00:58;;;;;;;5.60;1.02;;;;;;;17.23;64.14;101030.81;7399919;19;19918;-76
2023/08/08 09:03:27;;;;;;;1.75;0.52;;;;;;;17.31;63.94;101060.50;7399575;19;19911;-76
2023/08/08 09:05:57;;;;;;;3.70;0.60;;;;;;;17.27;64.42;101037.47;7399239;19;20368;-76
2023/08/08 09:08:28;;;;;;;3.38;0.55;;;;;;;17.13;65.09;101031.25;7397441;19;19919;-76
2023/08/08 09:10:57;;;;;;;3.20;0.70;;;;;;;17.06;64.77;101040.50;7399836;19;19946;-76
2023/08/08 09:13:26;;;;;;;10.82;1.00;;;;;;;17.02;65.63;101022.94;7399506;19;19914;-76
2023/08/08 09:15:55;;;;;;;4.47;0.70;;;;;;;17.04;65.50;101020.84;7399129;19;20296;-75
2023/08/08 09:18:26;;;;;;;3.10;0.68;;;;;;;17.05;64.80;101044.28;7399171;19;19974;-76
2023/08/08 09:20:55;;;;;;;3.10;0.52;;;;;;;17.02;65.75;101025.66;7399020;19;19919;-75
2023/08/08 09:23:23;;;;;;;6.60;0.90;;;;;;;16.97;66.25;101026.31;7398746;19;20340;-76
2023/08/08 09:25:55;;;;;;;2.22;0.80;;;;;;;17.08;66.25;101039.25;7398796;19;19967;-77
2023/08/08 09:28:24;;;;;;;2.90;0.60;;;;;;;17.19;64.99;101022.25;7396963;19;19927;-76
2023/08/08 09:30:53;;;;;;;1.52;0.30;;;;;;;17.39;63.34;101003.06;7398149;19;19914;-75
2023/08/08 09:33:22;;;;;;;1.67;0.50;;;;;;;17.60;63.00;101027.25;7398625;19;19919;-76
2023/08/08 09:35:51;;;;;;;3.92;0.77;;;;;;;17.82;61.79;101013.31;7403164;19;19914;-76
2023/08/08 09:38:19;;;;;;;2.80;0.82;;;;;;;17.91;61.38;101020.97;7404666;19;19922;-76
2023/08/08 09:40:48;;;;;;;1.90;0.50;;;;;;;18.00;61.71;101027.84;7402400;19;19926;-76
2023/08/08 09:43:20;;;;;;;2.88;0.82;;;;;;;18.04;60.66;101036.41;7404962;19;19923;-76
2023/08/08 09:45:50;;;;;;;3.30;0.60;;;;;;;18.02;62.12;101017.56;7404633;19;19919;-76
2023/08/08 09:48:20;;;;;;;3.30;0.80;;;;;;;17.86;62.72;101014.53;7402569;19;19917;-76
2023/08/08 09:50:50;;;;;;;2.67;0.60;;;;;;;17.61;62.98;101015.31;7403198;19;20283;-76
2023/08/08 09:53:19;;;;;;;2.95;0.63;;;;;;;17.39;63.42;101022.13;7409210;19;20352;-75
2023/08/08 09:55:49;;;;;;;3.35;0.95;;;;;;;17.33;63.79;101033.91;7404244;19;19922;-75
2023/08/08 09:58:20;;;;;;;2.65;0.80;;;;;;;17.37;63.23;101026.97;7404333;19;19936;-75
2023/08/08 10:00:51;;;;;;;2.03;0.52;;;;;;;17.58;62.62;101029.38;7404196;19;19936;-75
2023/08/08 10:03:20;;;;;;;3.17;0.50;;;;;;;17.61;62.16;101033.56;7404137;19;19957;-75
2023/08/08 10:05:49;;;;;;;4.80;0.80;;;;;;;17.61;61.15;101069.81;7404309;19;19911;-76
2023/08/08 10:08:19;;;;;;;4.88;0.70;;;;;;;17.65;61.31;101029.34;7402126;19;19942;-75
2023/08/08 10:10:49;;;;;;;6.93;1.15;;;;;;;17.67;61.42;101021.78;7403715;19;20257;-75
2023/08/08 10:13:25;;;;;;;0.93;0.50;;;;;;;17.78;62.39;101014.78;7403922;19;19915;-75
2023/08/08 10:15:55;;;;;;;3.03;0.70;;;;;;;17.73;63.06;101014.63;7403921;19;19922;-75
2023/08/08 10:18:25;;;;;;;3.88;0.70;;;;;;;17.64;63.67;101024.97;7403705;19;19919;-75
2023/08/08 10:20:54;;;;;;;3.40;0.90;;;;;;;17.67;64.15;101010.91;7403469;19;19915;-75
2023/08/08 10:23:23;;;;;;;4.97;1.00;;;;;;;17.77;63.75;101013.13;7403453;19;19950;-75
2023/08/08 10:25:54;;;;;;;2.85;0.90;;;;;;;17.67;63.64;101000.84;7403829;19;20263;-75
2023/08/08 10:28:25;;;;;;;7.18;1.25;;;;;;;17.51;64.14;101019.56;7402655;19;19922;-75
2023/08/08 10:31:01;;;;;;;3.33;0.45;;;;;;;17.26;65.92;101024.09;7406091;19;19923;-78
2023/08/08 10:33:42;;;;;;;2.58;0.80;;;;;;;17.02;68.78;101047.44;7403013;19;19919;-76
2023/08/08 10:36:13;;;;;;;4.57;1.10;;;;;;;16.55;70.84;101049.41;7400401;19;19918;-75
2023/08/08 10:38:44;;;;;;;2.22;0.80;;;;;;;16.26;70.62;101061.56;7402185;19;19914;-73
2023/08/08 10:41:15;;;;;;;2.10;0.60;;;;;;;16.01;72.04;101065.09;7402721;19;19935;-73
2023/08/08 10:43:54;;;;;;;2.90;0.70;;;;;;;15.87;72.73;101067.81;7402543;19;19919;-73
2023/08/08 10:46:27;;;;;;;2.47;0.90;;;;;;;15.77;73.28;101056.50;7401512;19;19929;-73
2023/08/08 10:48:58;;;;;;;2.72;0.60;;;;;;;15.80;73.22;101038.94;7400485;19;19915;-73
2023/08/08 10:51:35;;;;;;;4.82;0.88;;;;;;;15.78;72.57;101049.22;7404189;19;19978;-73
2023/08/08 10:54:07;;;;;;;4.60;1.10;;;;;;;15.78;72.71;101041.91;7402138;19;20580;-73
2023/08/08 10:56:38;;;;;;;5.93;0.75;;;;;;;15.92;72.62;101036.47;7402259;19;19922;-73
2023/08/08 10:59:19;;;;;;;4.72;0.85;;;;;;;16.08;72.05;101031.47;7402582;19;19935;-73
2023/08/08 11:01:50;;;;;;;2.42;0.45;;;;;;;16.46;70.47;101066.16;7402372;19;19915;-73
2023/08/08 11:04:21;;;;;;;3.28;1.10;;;;;;;16.77;69.88;101067.19;7402773;19;19925;-75
2023/08/08 11:06:50;;;;;;;3.60;0.90;;;;;;;17.11;69.74;101038.81;7402037;19;19922;-75
2023/08/08 11:09:19;;;;;;;3.65;0.82;;;;;;;17.15;69.64;101034.63;7399941;19;19923;-74
2023/08/08 11:11:48;;;;;;;5.50;0.75;;;;;;;17.04;68.72;101067.94;7402194;19;20367;-74
2023/08/08 11:14:21;;;;;;;4.50;1.52;;;;;;;16.99;67.47;101040.53;7401892;19;19918;-74
2023/08/08 11:16:51;;;;;;;5.25;1.15;;;;;;;17.07;67.66;101036.75;7401974;19;19943;-74
2023/08/08 11:19:22;;;;;;;3.15;0.60;;;;;;;17.43;66.99;101075.09;7402189;19;19923;-75
2023/08/08 11:21:51;;;;;;;7.93;1.25;;;;;;;17.44;65.02;101048.72;7402141;19;19941;-74
2023/08/08 11:24:21;;;;;;;1.88;0.70;;;;;;;17.42;66.11;101045.38;7401540;19;19948;-75
2023/08/08 11:26:51;;;;;;;4.50;0.90;;;;;;;17.34;66.27;101037.47;7401869;19;19930;-74
2023/08/08 11:29:23;;;;;;;3.83;1.05;;;;;;;17.56;62.53;101030.66;7399981;19;19947;-75
2023/08/08 11:31:52;;;;;;;3.80;0.68;;;;;;;17.79;61.67;101046.44;7401232;19;20017;-75
2023/08/08 11:34:21;;;;;;;4.32;0.80;;;;;;;18.06;61.23;101043.31;7400105;19;20402;-75